Burns, Mississippi
Current Conditions -  °F | °C
As of 9:54 AM on Friday 19 Dec 2014 (Local Time) from KJAN Reporting Station
Overcast Overcast  
Wind Chill: 49°   Ceiling: 2800
Heat Index: 49°   Visibility: 10mi
Dew Point: 36°   Wind: 0mph
Humidity: 61%   Direction: NA
Pressure: 30.23"   Gusts: NA
Location:  32.0729°N, 89.5094°W
Report Text: KJAN 191554Z 00000KT 10SM OVC028 09/02 A3023 RMK AO2 PRESRR SLP236 T00940022
Loading
Personal Weather Stations






























Interactive Weather Map New forecast layout! Learn more

10-Day Weather Forecast

Advertisements
Track Severe Weather on mobile